createdAt,value
2018-04-08T00:00:17.284Z,16.00
2018-04-08T00:02:44.747Z,16.00
2018-04-08T00:05:12.216Z,15.90
2018-04-08T00:07:39.680Z,15.90
2018-04-08T00:10:07.147Z,15.80
2018-04-08T00:12:34.616Z,15.70
2018-04-08T00:15:02.095Z,15.70
2018-04-08T00:17:29.571Z,15.70
2018-04-08T00:19:57.036Z,15.60
2018-04-08T00:22:24.512Z,15.60
2018-04-08T00:24:52.068Z,15.60
2018-04-08T00:27:19.636Z,15.50
2018-04-08T00:29:47.112Z,15.40
2018-04-08T00:32:14.675Z,15.40
2018-04-08T00:34:42.144Z,15.30
2018-04-08T00:37:09.625Z,15.30
2018-04-08T00:39:37.188Z,15.30
2018-04-08T00:42:04.667Z,15.20
2018-04-08T00:44:32.136Z,15.20
2018-04-08T00:46:59.608Z,15.20
2018-04-08T00:49:27.097Z,15.10
2018-04-08T00:51:55.328Z,15.00
2018-04-08T00:54:37.676Z,15.00
2018-04-08T00:57:05.140Z,15.00
2018-04-08T00:59:32.605Z,14.90
2018-04-08T01:02:00.080Z,14.90
2018-04-08T01:04:27.551Z,14.80
2018-04-08T01:06:55.016Z,14.70
2018-04-08T01:09:22.499Z,14.70
2018-04-08T01:11:49.961Z,14.70
2018-04-08T01:14:17.531Z,14.60
2018-04-08T01:16:45.006Z,14.60
2018-04-08T01:19:12.479Z,14.50
2018-04-08T01:21:39.939Z,14.40
2018-04-08T01:24:07.426Z,14.40
2018-04-08T01:26:34.928Z,14.40
2018-04-08T01:29:02.393Z,14.40
2018-04-08T01:31:30.628Z,14.30
2018-04-08T01:33:58.096Z,14.30
2018-04-08T01:36:25.568Z,14.30
2018-04-08T01:38:53.041Z,14.30
2018-04-08T01:41:20.522Z,14.20
2018-04-08T01:43:47.985Z,14.20
2018-04-08T01:46:15.448Z,14.20
2018-04-08T01:48:43.701Z,14.10
2018-04-08T01:51:11.168Z,14.10
2018-04-08T01:53:38.640Z,14.10
2018-04-08T01:56:06.134Z,14.00
2018-04-08T01:58:33.624Z,14.00
2018-04-08T02:01:01.191Z,13.90
2018-04-08T02:03:28.668Z,13.90
2018-04-08T02:05:56.244Z,13.80
2018-04-08T02:08:23.710Z,13.80
2018-04-08T02:10:51.176Z,13.80
2018-04-08T02:13:18.664Z,13.80
2018-04-08T02:15:46.129Z,13.80
2018-04-08T02:18:13.595Z,13.70
2018-04-08T02:20:41.156Z,13.70
2018-04-08T02:23:08.623Z,13.60
2018-04-08T02:25:36.095Z,13.60
2018-04-08T02:28:03.560Z,13.60
2018-04-08T02:30:31.480Z,13.60
2018-04-08T02:33:00.671Z,13.50
2018-04-08T02:35:28.129Z,13.50
2018-04-08T02:37:55.601Z,13.40
2018-04-08T02:40:23.073Z,13.40
2018-04-08T02:42:50.540Z,13.30
2018-04-08T02:45:18.005Z,13.30
2018-04-08T02:47:45.472Z,13.30
2018-04-08T02:50:13.041Z,13.30
2018-04-08T02:52:40.509Z,13.20
2018-04-08T02:55:08.745Z,13.10
2018-04-08T02:57:36.216Z,13.00
2018-04-08T03:00:03.686Z,13.10
2018-04-08T03:02:31.937Z,13.00
2018-04-08T03:04:59.419Z,13.00
2018-04-08T03:07:27.689Z,13.00
2018-04-08T03:09:55.152Z,12.90
2018-04-08T03:12:22.632Z,13.00
2018-04-08T03:14:50.198Z,12.90
2018-04-08T03:17:17.689Z,12.90
2018-04-08T03:19:45.156Z,12.90
2018-04-08T03:22:12.624Z,12.90
2018-04-08T03:24:40.180Z,12.90
2018-04-08T03:27:07.644Z,12.90
2018-04-08T03:29:35.119Z,12.90
2018-04-08T03:32:02.594Z,12.90
2018-04-08T03:34:30.156Z,12.90
2018-04-08T03:36:57.620Z,12.90
2018-04-08T03:39:25.086Z,12.90
2018-04-08T03:41:52.548Z,12.90
2018-04-08T03:44:20.012Z,12.90
2018-04-08T03:46:47.603Z,12.90
2018-04-08T03:49:15.060Z,12.90
2018-04-08T03:51:43.292Z,12.90
2018-04-08T03:54:11.530Z,13.00
2018-04-08T03:56:38.983Z,12.90
2018-04-08T03:59:06.461Z,12.90
2018-04-08T04:01:33.937Z,12.90
2018-04-08T04:04:01.413Z,13.00
2018-04-08T04:06:28.876Z,12.90
2018-04-08T04:08:56.347Z,12.90
2018-04-08T04:11:24.587Z,12.90
2018-04-08T04:13:52.812Z,12.90
2018-04-08T04:16:20.285Z,12.90
2018-04-08T04:18:59.732Z,12.90
2018-04-08T04:24:41.668Z,12.80
2018-04-08T04:27:09.126Z,12.80
2018-04-08T04:29:37.352Z,12.70
2018-04-08T04:32:04.856Z,12.70
2018-04-08T04:34:32.340Z,12.70
2018-04-08T04:37:00.563Z,12.80
2018-04-08T04:39:28.020Z,12.70
2018-04-08T04:41:55.528Z,12.70
2018-04-08T04:44:22.998Z,12.80
2018-04-08T04:46:50.567Z,12.70
2018-04-08T04:49:18.040Z,12.70
2018-04-08T04:51:45.501Z,12.70
2018-04-08T04:54:12.971Z,12.70
2018-04-08T04:56:40.428Z,12.70
2018-04-08T04:59:07.915Z,12.70
2018-04-08T05:01:35.373Z,12.70
2018-04-08T05:04:02.842Z,12.70
2018-04-08T05:06:30.308Z,12.70
2018-04-08T05:08:57.775Z,12.70
2018-04-08T05:11:25.244Z,12.80
2018-04-08T05:13:52.722Z,12.80
2018-04-08T05:16:20.175Z,12.80
2018-04-08T05:18:47.645Z,12.90
2018-04-08T05:21:15.108Z,12.90
2018-04-08T05:23:42.576Z,13.00
2018-04-08T05:26:10.048Z,13.10
2018-04-08T05:28:37.512Z,13.10
2018-04-08T05:31:04.985Z,13.20
2018-04-08T05:33:32.456Z,13.20
2018-04-08T05:36:00.322Z,13.30
2018-04-08T05:38:28.540Z,13.50
2018-04-08T05:40:56.044Z,13.50
2018-04-08T05:43:23.479Z,13.60
2018-04-08T05:45:50.954Z,13.70
2018-04-08T05:48:18.416Z,13.80
2018-04-08T05:50:45.884Z,13.90
2018-04-08T05:53:13.348Z,14.00
2018-04-08T05:55:40.803Z,14.10
2018-04-08T05:58:08.317Z,14.10
2018-04-08T06:00:35.744Z,14.20
2018-04-08T06:03:03.208Z,14.30
2018-04-08T06:05:30.668Z,14.40
2018-04-08T06:07:58.909Z,14.50
2018-04-08T06:10:26.362Z,14.50
2018-04-08T06:12:53.812Z,14.60
2018-04-08T06:15:21.275Z,14.70
2018-04-08T06:17:48.735Z,14.80
2018-04-08T06:20:16.201Z,14.90
2018-04-08T06:22:44.424Z,15.10
2018-04-08T06:25:11.892Z,15.00
2018-04-08T06:27:39.356Z,15.10
2018-04-08T06:30:06.824Z,15.30
2018-04-08T06:32:34.276Z,15.30
2018-04-08T06:35:01.741Z,15.40
2018-04-08T06:37:29.197Z,15.50
2018-04-08T06:39:57.448Z,15.70
2018-04-08T06:42:24.904Z,15.70
2018-04-08T06:44:52.364Z,15.80
2018-04-08T06:47:19.823Z,15.90
2018-04-08T06:49:47.281Z,16.00
2018-04-08T06:52:14.751Z,16.10
2018-04-08T06:54:42.222Z,16.20
2018-04-08T06:57:09.677Z,16.30
2018-04-08T06:59:37.909Z,16.50
2018-04-08T07:02:05.398Z,16.50
2018-04-08T07:04:32.868Z,16.70
2018-04-08T07:07:00.336Z,16.80
2018-04-08T07:09:27.799Z,16.90
2018-04-08T07:11:55.265Z,17.00
2018-04-08T07:14:22.729Z,17.10
2018-04-08T07:16:50.187Z,17.10
2018-04-08T07:19:17.640Z,17.20
2018-04-08T07:21:45.107Z,17.20
2018-04-08T07:24:12.558Z,17.20
2018-04-08T07:26:40.776Z,17.20
2018-04-08T07:29:08.239Z,17.20
2018-04-08T07:31:35.696Z,17.20
2018-04-08T07:34:03.172Z,17.20
2018-04-08T07:36:30.640Z,17.20
2018-04-08T07:38:58.100Z,17.20
2018-04-08T07:41:25.568Z,17.20
2018-04-08T07:43:53.016Z,17.20
2018-04-08T07:46:21.240Z,17.10
2018-04-08T07:48:48.805Z,17.10
2018-04-08T07:51:16.255Z,17.10
2018-04-08T07:53:44.479Z,17.10
2018-04-08T07:56:11.947Z,17.10
2018-04-08T07:58:39.403Z,17.10
2018-04-08T08:01:06.866Z,17.10
2018-04-08T08:03:34.325Z,17.10
2018-04-08T08:06:02.556Z,17.20
2018-04-08T08:08:30.023Z,17.20
2018-04-08T08:10:57.481Z,17.20
2018-04-08T08:13:24.934Z,17.30
2018-04-08T08:15:52.397Z,17.40
2018-04-08T08:18:19.907Z,17.50
2018-04-08T08:20:47.329Z,17.60
2018-04-08T08:23:15.557Z,17.90
2018-04-08T08:25:43.039Z,17.80
2018-04-08T08:28:10.608Z,18.00
2018-04-08T08:30:38.059Z,18.10
2018-04-08T08:33:05.524Z,18.20
2018-04-08T08:35:32.993Z,18.40
2018-04-08T08:38:00.456Z,18.40
2018-04-08T08:40:27.967Z,18.60
2018-04-08T08:42:55.428Z,18.70
2018-04-08T08:45:22.892Z,18.90
2018-04-08T08:47:50.350Z,19.10
2018-04-08T08:50:17.820Z,19.20
2018-04-08T08:52:45.276Z,19.40
2018-04-08T08:55:12.736Z,19.50
2018-04-08T08:57:40.244Z,19.60
2018-04-08T09:00:07.701Z,19.70
2018-04-08T09:02:35.167Z,19.80
2018-04-08T09:05:02.626Z,20.00
2018-04-08T09:07:30.103Z,20.10
2018-04-08T09:09:57.561Z,20.20
2018-04-08T09:12:25.020Z,20.40
2018-04-08T09:14:52.487Z,20.50
2018-04-08T09:17:20.050Z,20.70
2018-04-08T09:19:53.264Z,21.00
2018-04-08T09:22:20.735Z,21.00
2018-04-08T09:25:03.080Z,21.10
2018-04-08T09:27:30.532Z,21.20
2018-04-08T09:29:58.004Z,21.30
2018-04-08T09:32:25.467Z,21.40
2018-04-08T09:34:52.921Z,21.50
2018-04-08T09:37:21.164Z,21.50
2018-04-08T09:39:48.620Z,21.50
2018-04-08T09:42:16.104Z,21.40
2018-04-08T09:44:43.668Z,21.40
2018-04-08T09:47:11.130Z,21.30
2018-04-08T09:49:38.607Z,21.30
2018-04-08T09:52:06.084Z,21.30
2018-04-08T09:54:33.548Z,21.40
2018-04-08T09:57:01.021Z,21.40
2018-04-08T09:59:28.475Z,21.50
2018-04-08T10:02:12.386Z,21.80
2018-04-08T10:04:40.641Z,22.10
2018-04-08T10:07:08.200Z,22.10
2018-04-08T10:09:35.674Z,22.30
2018-04-08T10:12:03.170Z,22.40
2018-04-08T10:14:30.608Z,22.60
2018-04-08T10:16:58.074Z,22.70
2018-04-08T10:19:25.573Z,22.90
2018-04-08T10:21:53.009Z,22.90
2018-04-08T10:24:20.465Z,23.00
2018-04-08T10:26:47.932Z,23.20
2018-04-08T10:29:15.496Z,23.40
2018-04-08T10:31:42.848Z,23.60
2018-04-08T10:34:10.320Z,23.50
2018-04-08T10:36:37.789Z,23.60
2018-04-08T10:39:05.275Z,23.80
2018-04-08T10:41:32.752Z,23.90
2018-04-08T10:44:00.207Z,23.90
2018-04-08T10:46:27.676Z,24.10
2018-04-08T10:48:55.147Z,24.30
2018-04-08T10:51:22.611Z,24.40
2018-04-08T10:53:50.083Z,24.50
2018-04-08T10:56:17.540Z,24.90
2018-04-08T10:58:45.768Z,25.30
2018-04-08T11:01:13.237Z,25.30
2018-04-08T11:03:40.695Z,25.60
2018-04-08T11:06:08.149Z,25.60
2018-04-08T11:08:35.616Z,25.60
2018-04-08T11:11:03.071Z,25.90
2018-04-08T11:13:31.313Z,25.90
2018-04-08T11:15:58.765Z,25.90
2018-04-08T11:18:26.249Z,26.10
2018-04-08T11:20:53.708Z,26.30
2018-04-08T11:23:21.163Z,26.80
2018-04-08T11:25:48.635Z,27.60
2018-04-08T11:28:16.093Z,28.30
2018-04-08T11:30:43.560Z,29.30
2018-04-08T11:33:11.024Z,29.80
2018-04-08T11:35:38.484Z,30.70
2018-04-08T11:38:06.714Z,31.10
2018-04-08T11:40:34.164Z,31.10
2018-04-08T11:43:01.628Z,31.20
2018-04-08T11:45:29.108Z,30.80
2018-04-08T11:47:56.565Z,30.90
2018-04-08T11:50:24.024Z,31.10
2018-04-08T11:52:51.490Z,31.50
2018-04-08T11:55:19.715Z,31.90
2018-04-08T11:57:47.189Z,31.90
2018-04-08T12:00:14.644Z,32.30
2018-04-08T12:02:42.109Z,32.30
2018-04-08T12:05:09.566Z,32.90
2018-04-08T12:07:37.030Z,32.60
2018-04-08T12:10:04.497Z,33.30
2018-04-08T12:12:31.964Z,33.20
2018-04-08T12:15:00.208Z,34.50
2018-04-08T12:17:27.674Z,34.50
2018-04-08T12:19:55.136Z,35.90
2018-04-08T12:22:22.592Z,36.70
2018-04-08T12:24:50.051Z,37.00
2018-04-08T12:27:17.508Z,36.60
2018-04-08T12:29:44.981Z,36.40
2018-04-08T12:32:12.435Z,36.30
2018-04-08T12:34:40.652Z,36.60
2018-04-08T12:37:08.125Z,36.60
2018-04-08T12:39:35.584Z,37.10
2018-04-08T12:42:03.037Z,37.80
2018-04-08T12:44:30.502Z,37.30
2018-04-08T12:46:58.719Z,36.30
2018-04-08T12:49:26.184Z,36.30
2018-04-08T12:51:53.663Z,36.00
2018-04-08T12:54:21.121Z,35.40
2018-04-08T12:56:48.572Z,34.70
2018-04-08T12:59:16.034Z,34.70
2018-04-08T13:01:44.272Z,34.80
2018-04-08T13:04:11.735Z,34.70
2018-04-08T13:06:39.203Z,35.30
2018-04-08T13:09:06.668Z,36.00
2018-04-08T13:11:34.120Z,36.90
2018-04-08T13:14:01.580Z,37.40
2018-04-08T13:16:29.045Z,37.50
2018-04-08T13:18:56.513Z,38.10
2018-04-08T13:21:23.964Z,38.40
2018-04-08T13:23:52.193Z,38.30
2018-04-08T13:26:19.645Z,38.30
2018-04-08T13:28:47.103Z,38.20
2018-04-08T13:31:15.324Z,38.40
2018-04-08T13:33:42.781Z,38.40
2018-04-08T13:36:10.240Z,38.70
2018-04-08T13:38:37.705Z,38.80
2018-04-08T13:41:05.197Z,39.00
2018-04-08T13:43:32.652Z,39.30
2018-04-08T13:46:00.102Z,39.20
2018-04-08T13:48:28.328Z,39.10
2018-04-08T13:50:55.784Z,39.20
2018-04-08T13:53:23.250Z,38.90
2018-04-08T13:55:50.704Z,38.80
2018-04-08T13:58:18.160Z,39.00
2018-04-08T14:00:46.376Z,39.10
2018-04-08T14:03:13.852Z,39.10
2018-04-08T14:05:41.304Z,40.00
2018-04-08T14:08:08.766Z,40.60
2018-04-08T14:10:36.990Z,39.80
2018-04-08T14:13:04.440Z,39.80
2018-04-08T14:15:31.895Z,40.30
2018-04-08T14:17:59.779Z,41.20
2018-04-08T14:20:27.225Z,41.70
2018-04-08T14:22:55.447Z,42.10
2018-04-08T14:25:22.916Z,42.00
2018-04-08T14:27:50.372Z,42.40
2018-04-08T14:30:17.863Z,42.10
2018-04-08T14:32:45.316Z,42.10
2018-04-08T14:35:12.781Z,42.70
2018-04-08T14:37:40.244Z,43.40
2018-04-08T14:40:07.705Z,43.00
2018-04-08T14:42:35.936Z,43.30
2018-04-08T14:45:03.386Z,43.30
2018-04-08T14:47:30.899Z,43.30
2018-04-08T14:49:58.326Z,43.80
2018-04-08T14:52:25.792Z,44.00
2018-04-08T14:54:53.268Z,43.90
2018-04-08T14:57:20.727Z,44.50
2018-04-08T14:59:48.183Z,44.80
2018-04-08T15:02:16.428Z,45.40
2018-04-08T15:04:43.886Z,45.40
2018-04-08T15:07:11.338Z,45.10
2018-04-08T15:09:38.798Z,45.50
2018-04-08T15:12:06.303Z,45.60
2018-04-08T15:14:33.759Z,44.10
2018-04-08T15:17:01.210Z,43.00
2018-04-08T15:19:28.673Z,41.90
2018-04-08T15:21:56.165Z,41.30
2018-04-08T15:24:23.620Z,41.40
2018-04-08T15:26:51.076Z,41.90
2018-04-08T15:29:18.541Z,42.10
2018-04-08T15:31:45.999Z,42.40
2018-04-08T15:34:14.240Z,42.00
2018-04-08T15:36:41.696Z,42.00
2018-04-08T15:39:09.152Z,42.10
2018-04-08T15:41:36.614Z,41.80
2018-04-08T15:44:04.068Z,42.10
2018-04-08T15:46:32.300Z,43.10
2018-04-08T15:48:59.755Z,43.00
2018-04-08T15:51:27.243Z,43.30
2018-04-08T15:53:54.692Z,43.70
2018-04-08T15:56:22.144Z,43.60
2018-04-08T15:58:49.663Z,43.30
2018-04-08T16:01:17.117Z,43.30
2018-04-08T16:03:44.580Z,43.40
2018-04-08T16:06:12.042Z,43.40
2018-04-08T16:08:39.496Z,43.20
2018-04-08T16:11:06.965Z,43.20
2018-04-08T16:13:34.427Z,43.20
2018-04-08T16:16:01.892Z,43.00
2018-04-08T16:18:30.110Z,42.60
2018-04-08T16:20:57.587Z,42.60
2018-04-08T16:23:25.067Z,42.30
2018-04-08T16:25:52.525Z,41.90
2018-04-08T16:28:20.057Z,41.90
2018-04-08T16:30:48.273Z,41.40
2018-04-08T16:33:15.732Z,41.40
2018-04-08T16:35:43.196Z,40.80
2018-04-08T16:38:10.656Z,40.20
2018-04-08T16:40:38.119Z,39.70
2018-04-08T16:43:06.352Z,39.20
2018-04-08T16:45:33.803Z,39.10
2018-04-08T16:48:01.264Z,38.80
2018-04-08T16:50:28.729Z,38.70
2018-04-08T16:52:56.192Z,38.30
2018-04-08T16:55:23.673Z,37.90
2018-04-08T16:57:51.133Z,37.40
2018-04-08T17:00:18.597Z,36.90
2018-04-08T17:02:46.094Z,36.50
2018-04-08T17:05:13.548Z,36.00
2018-04-08T17:07:41.006Z,35.50
2018-04-08T17:10:08.468Z,35.00
2018-04-08T17:12:36.695Z,33.90
2018-04-08T17:15:04.147Z,33.90
2018-04-08T17:17:31.625Z,33.40
2018-04-08T17:19:59.144Z,32.90
2018-04-08T17:22:26.551Z,32.60
2018-04-08T17:24:54.059Z,32.20
2018-04-08T17:27:21.512Z,31.90
2018-04-08T17:29:48.968Z,31.60
2018-04-08T17:32:16.425Z,31.20
2018-04-08T17:34:43.879Z,30.90
2018-04-08T17:37:12.107Z,30.30
2018-04-08T17:39:39.564Z,30.30
2018-04-08T17:42:07.025Z,30.00
2018-04-08T17:44:34.484Z,29.80
2018-04-08T17:47:01.991Z,29.50
2018-04-08T17:49:29.405Z,29.30
2018-04-08T17:51:57.628Z,28.90
2018-04-08T17:54:25.082Z,28.90
2018-04-08T17:56:52.551Z,28.80
2018-04-08T17:59:20.012Z,28.60
2018-04-08T18:01:47.469Z,28.40
2018-04-08T18:04:15.697Z,27.90
2018-04-08T18:06:43.143Z,27.90
2018-04-08T18:09:10.655Z,27.70
2018-04-08T18:11:38.232Z,27.50
2018-04-08T18:14:05.732Z,27.30
2018-04-08T18:16:33.949Z,27.00
2018-04-08T18:19:01.406Z,26.90
2018-04-08T18:21:28.865Z,26.80
2018-04-08T18:23:57.091Z,26.50
2018-04-08T18:26:24.576Z,26.50
2018-04-08T18:28:52.050Z,26.50
2018-04-08T18:31:19.499Z,26.30
2018-04-08T18:33:46.961Z,26.20
2018-04-08T18:36:14.424Z,26.10
2018-04-08T18:38:41.882Z,26.00
2018-04-08T18:41:09.400Z,25.90
2018-04-08T18:43:36.919Z,25.90
2018-04-08T18:46:05.141Z,25.70
2018-04-08T18:48:32.620Z,25.60
2018-04-08T18:51:00.076Z,25.60
2018-04-08T18:53:27.537Z,25.40
2018-04-08T18:55:55.019Z,25.30
2018-04-08T18:58:22.477Z,25.20
2018-04-08T19:00:49.933Z,25.10
2018-04-08T19:03:17.402Z,24.90
2018-04-08T19:05:44.862Z,24.80
2018-04-08T19:08:13.115Z,24.70
2018-04-08T19:10:40.549Z,24.70
2018-04-08T19:13:07.999Z,24.60
2018-04-08T19:15:35.471Z,24.50
2018-04-08T19:18:02.928Z,24.40
2018-04-08T19:20:31.743Z,24.30
2018-04-08T19:22:59.211Z,24.20
2018-04-08T19:25:26.691Z,24.20
2018-04-08T19:27:54.157Z,24.10
2018-04-08T19:30:21.624Z,24.00
2018-04-08T19:32:49.098Z,23.90
2018-04-08T19:35:16.535Z,23.80
2018-04-08T19:37:44.772Z,23.80
2018-04-08T19:40:12.228Z,23.80
2018-04-08T19:42:39.709Z,23.70
2018-04-08T19:45:07.160Z,23.70
2018-04-08T19:47:34.618Z,23.70
2018-04-08T19:50:02.082Z,23.60
2018-04-08T19:52:30.320Z,23.50
2018-04-08T19:54:57.771Z,23.50
2018-04-08T19:57:25.233Z,23.40
2018-04-08T19:59:52.699Z,23.40
2018-04-08T20:02:20.158Z,23.30
2018-04-08T20:04:47.611Z,23.30
2018-04-08T20:07:15.077Z,23.30
2018-04-08T20:09:43.299Z,23.20
2018-04-08T20:12:10.763Z,23.20
2018-04-08T20:14:38.216Z,23.20
2018-04-08T20:17:05.712Z,23.20
2018-04-08T20:19:33.196Z,23.10
2018-04-08T20:22:00.657Z,23.10
2018-04-08T20:24:28.126Z,23.10
2018-04-08T20:26:55.599Z,23.10
2018-04-08T20:29:23.064Z,23.10
2018-04-08T20:31:50.517Z,23.00
2018-04-08T20:34:17.980Z,23.00
2018-04-08T20:36:45.448Z,22.90
2018-04-08T20:39:12.918Z,22.80
2018-04-08T20:41:40.371Z,22.80
2018-04-08T20:44:07.845Z,22.80
2018-04-08T20:46:36.064Z,22.60
2018-04-08T20:49:03.532Z,22.60
2018-04-08T20:51:30.996Z,22.50
2018-04-08T20:53:58.463Z,22.50
2018-04-08T20:56:25.920Z,22.40
2018-04-08T20:58:53.375Z,22.40
2018-04-08T21:01:20.829Z,22.30
2018-04-08T21:03:49.059Z,22.10
2018-04-08T21:06:16.517Z,22.10
2018-04-08T21:08:44.024Z,22.00
2018-04-08T21:11:11.496Z,22.00
2018-04-08T21:13:38.948Z,21.90
2018-04-08T21:16:06.424Z,21.80
2018-04-08T21:18:33.892Z,21.70
2018-04-08T21:21:01.369Z,21.60
2018-04-08T21:23:28.831Z,21.50
2018-04-08T21:25:56.316Z,21.40
2018-04-08T21:28:23.824Z,21.30
2018-04-08T21:30:52.066Z,21.20
2018-04-08T21:33:19.522Z,21.20
2018-04-08T21:35:47.009Z,21.10
2018-04-08T21:38:14.472Z,21.00
2018-04-08T21:40:42.043Z,20.90
2018-04-08T21:43:09.502Z,20.80
2018-04-08T21:45:36.952Z,20.70
2018-04-08T21:48:04.416Z,20.60
2018-04-08T21:50:31.879Z,20.50
2018-04-08T21:52:59.329Z,20.40
2018-04-08T21:55:27.586Z,20.30
2018-04-08T21:57:55.148Z,20.30
2018-04-08T22:00:22.613Z,20.30
2018-04-08T22:02:50.088Z,20.20
2018-04-08T22:05:17.557Z,20.20
2018-04-08T22:07:45.033Z,20.20
2018-04-08T22:10:12.487Z,20.10
2018-04-08T22:12:40.073Z,20.10
2018-04-08T22:15:07.545Z,20.10
2018-04-08T22:17:34.987Z,20.00
2018-04-08T22:20:02.453Z,20.00
2018-04-08T22:22:29.956Z,20.00
2018-04-08T22:24:57.412Z,20.00
2018-04-08T22:27:24.892Z,20.00
2018-04-08T22:29:53.992Z,19.90
2018-04-08T22:32:21.451Z,19.90
2018-04-08T22:34:48.923Z,19.90
2018-04-08T22:37:16.385Z,19.80
2018-04-08T22:39:43.838Z,19.70
2018-04-08T22:42:11.302Z,19.70
2018-04-08T22:44:38.812Z,19.60
2018-04-08T22:47:06.284Z,19.60
2018-04-08T22:49:33.740Z,19.50
2018-04-08T22:52:01.209Z,19.40
2018-04-08T22:54:28.663Z,19.30
2018-04-08T22:56:56.131Z,19.20
2018-04-08T22:59:23.626Z,19.10
2018-04-08T23:01:51.080Z,19.00
2018-04-08T23:04:18.569Z,18.90
2018-04-08T23:06:46.031Z,18.80
2018-04-08T23:09:13.508Z,18.70
2018-04-08T23:11:40.965Z,18.60
2018-04-08T23:14:08.444Z,18.60
2018-04-08T23:16:35.898Z,18.50
2018-04-08T23:19:03.368Z,18.40
2018-04-08T23:21:30.821Z,18.40
2018-04-08T23:23:58.279Z,18.30
2018-04-08T23:26:25.796Z,18.20
2018-04-08T23:28:53.264Z,18.10
2018-04-08T23:31:20.729Z,18.10
2018-04-08T23:33:48.200Z,18.00
2018-04-08T23:36:15.660Z,17.90
2018-04-08T23:38:43.119Z,17.70
2018-04-08T23:41:10.612Z,17.60
2018-04-08T23:43:38.081Z,17.50
2018-04-08T23:46:05.548Z,17.50
2018-04-08T23:48:33.012Z,17.40
2018-04-08T23:51:00.467Z,17.40
2018-04-08T23:53:27.956Z,17.30
2018-04-08T23:55:55.424Z,17.30
2018-04-08T23:58:22.916Z,17.30
